Blue Bossa — WDJ6873 — position and weather

sailwx.info

Track history (hours):
 
Tides and Currents Weather Stations Pressure Air Temp Water Temp Dewpoint Dewpoint Depression Visibility Wind Speed Wind Dir Waves Ship Positions

Blue Bossa

Owner: Callan, Daniel P, Seattle, WA. More information available from US FCC via Universal Licensing System.

Last reported at 2017-Oct-28 00:43 UTC. Time now 2017-Dec-11 14:54 UTC.
Position N 48°31' W 122°37'.
Warning: this ship's position is 44 days out of date.

Length 12 m.

Type: Sailing vessel. MMSI: 368001060.

Date/timePositionNaut miles runAvg speedWind from/ knotsBaromVisibWave heightAir tempDewpointWater temp
2017-Oct-28 00:43N 48°31' W 122°37'0 2.0
2017-Oct-28 00:30N 48°31' W 122°38'3 5.6
2017-Oct-28 00:00N 48°31' W 122°42'3 6.2
2017-Oct-27 23:30N 48°32' W 122°47'3 1.1
2017-Oct-27 20:39N 48°32' W 122°51'0 0.0
2017-Oct-27 20:20N 48°32' W 122°51'1 3.5
2017-Oct-27 20:00N 48°33' W 122°52'6 3.5
2017-Oct-27 18:20N 48°36' W 122°60'2 0.1
2017-Oct-26 23:20N 48°37' W 123°00'0 0.8
2017-Oct-26 22:49N 48°37' W 123°00'1 3.9
2017-Oct-26 22:30N 48°37' W 123°02'4 8.2
2017-Oct-26 22:00N 48°41' W 122°59'7 0.3
2017-Oct-26 01:22N 48°45' W 122°51'5 7.3
2017-Oct-26 00:43N 48°41' W 122°46'2 6.9
2017-Oct-26 00:25N 48°40' W 122°44'3 7.0
2017-Oct-26 00:00N 48°37' W 122°42'4 6.8
2017-Oct-25 23:28N 48°34' W 122°40'3 5.7
2017-Oct-25 22:59N 48°31' W 122°39'1 0.0
2017-Oct-25 00:41N 48°31' W 122°37'0 2.4
2017-Oct-25 00:30N 48°31' W 122°37'1 1.4
2017-Oct-24 23:59N 48°31' W 122°36'1 1.6
2017-Oct-24 23:30N 48°31' W 122°37'  
Track history (hours):
 
Tides and Currents Weather Stations Pressure Air Temp Water Temp Dewpoint Dewpoint Depression Visibility Wind Speed Wind Dir Waves Ship Positions

Blue Bossa

Owner: Callan, Daniel P, Seattle, WA. More information available from US FCC via Universal Licensing System.

Last reported at 2017-Oct-28 00:43 UTC. Time now 2017-Dec-11 14:54 UTC.
Position N 48°31' W 122°37'.
Warning: this ship's position is 44 days out of date.

Length 12 m.

Type: Sailing vessel. MMSI: 368001060.

Date/timePositionNaut miles runAvg speedWind from/ knotsBaromVisibWave heightAir tempDewpointWater temp
2017-Oct-28 00:43N 48°31' W 122°37'0 2.0
2017-Oct-28 00:30N 48°31' W 122°38'3 5.6
2017-Oct-28 00:00N 48°31' W 122°42'3 6.2
2017-Oct-27 23:30N 48°32' W 122°47'3 1.1
2017-Oct-27 20:39N 48°32' W 122°51'0 0.0
2017-Oct-27 20:20N 48°32' W 122°51'1 3.5
2017-Oct-27 20:00N 48°33' W 122°52'6 3.5
2017-Oct-27 18:20N 48°36' W 122°60'2 0.1
2017-Oct-26 23:20N 48°37' W 123°00'0 0.8
2017-Oct-26 22:49N 48°37' W 123°00'1 3.9
2017-Oct-26 22:30N 48°37' W 123°02'4 8.2
2017-Oct-26 22:00N 48°41' W 122°59'7 0.3
2017-Oct-26 01:22N 48°45' W 122°51'5 7.3
2017-Oct-26 00:43N 48°41' W 122°46'2 6.9
2017-Oct-26 00:25N 48°40' W 122°44'3 7.0
2017-Oct-26 00:00N 48°37' W 122°42'4 6.8
2017-Oct-25 23:28N 48°34' W 122°40'3 5.7
2017-Oct-25 22:59N 48°31' W 122°39'1 0.0
2017-Oct-25 00:41N 48°31' W 122°37'0 2.4
2017-Oct-25 00:30N 48°31' W 122°37'1 1.4
2017-Oct-24 23:59N 48°31' W 122°36'1 1.6
2017-Oct-24 23:30N 48°31' W 122°37'  

Dump ship's entire track history